Time;durP1;ratioP1;P1;durP2;ratioP2;P2;SDS_P1;SDS_P2;PMS_P1;PMS_P2;Temp;Humidity;BMP_temperature;BMP_pressure;BME280_temperature;BME280_humidity;BME280_pressure;Samples;Min_cycle;Max_cycle;Signal;HPM_P1;HPM_P2
2021/12/22 00:02:24;;;;;;;35.53;11.85;;;;;;;6.01;96.22;100929.38;4990436;28;20499;-79
2021/12/22 00:04:50;;;;;;;42.60;15.05;;;;;;;5.96;96.35;100925.44;5006317;28;20048;-77
2021/12/22 00:07:16;;;;;;;28.55;9.48;;;;;;;5.98;96.47;100926.13;4993225;28;20033;-78
2021/12/22 00:09:43;;;;;;;42.67;15.48;;;;;;;5.92;95.85;100924.84;5026714;28;20037;-78
2021/12/22 00:12:09;;;;;;;29.58;11.48;;;;;;;5.81;96.35;100919.66;4989000;28;20403;-78
2021/12/22 00:14:35;;;;;;;30.77;11.77;;;;;;;5.90;95.66;100932.13;5024253;28;20032;-77
2021/12/22 00:17:01;;;;;;;33.95;13.02;;;;;;;5.80;96.21;100925.97;5000163;28;20124;-78
2021/12/22 00:19:26;;;;;;;35.65;12.57;;;;;;;5.78;96.42;100926.09;5011041;28;20030;-78
2021/12/22 00:21:52;;;;;;;30.63;11.90;;;;;;;5.67;96.61;100913.75;5011991;28;20507;-78
2021/12/22 00:24:18;;;;;;;26.23;10.23;;;;;;;5.72;96.88;100914.19;5006065;28;20029;-80
2021/12/22 00:26:43;;;;;;;42.55;13.77;;;;;;;5.72;96.59;100906.16;5023362;28;20041;-78
2021/12/22 00:29:09;;;;;;;23.48;7.15;;;;;;;5.68;96.54;100910.09;4993212;28;20975;-78
2021/12/22 00:31:42;;;;;;;26.35;8.27;;;;;;;5.59;97.01;100900.28;4994045;28;20033;-78
2021/12/22 00:34:16;;;;;;;22.63;8.40;;;;;;;5.64;97.14;100907.88;5018593;28;20144;-79
2021/12/22 00:36:43;;;;;;;15.32;7.35;;;;;;;5.69;97.15;100917.13;5011405;28;20041;-78
2021/12/22 00:39:09;;;;;;;20.30;8.20;;;;;;;5.69;97.36;100913.63;4994808;28;20092;-79
2021/12/22 00:41:35;;;;;;;21.63;8.93;;;;;;;5.69;97.22;100914.47;4992493;28;20037;-80
2021/12/22 00:44:01;;;;;;;25.33;6.75;;;;;;;5.69;97.19;100911.78;4992284;28;20378;-79
2021/12/22 00:46:26;;;;;;;20.70;7.45;;;;;;;5.81;97.57;100914.31;5022102;28;20041;-78
2021/12/22 00:48:52;;;;;;;29.88;9.43;;;;;;;5.78;97.00;100906.59;5011444;28;20672;-79
2021/12/22 00:51:18;;;;;;;21.02;7.78;;;;;;;5.71;97.06;100907.13;5018619;28;20037;-79
2021/12/22 00:53:43;;;;;;;14.38;6.95;;;;;;;5.63;97.54;100890.16;4992058;28;20396;-78
2021/12/22 00:56:09;;;;;;;23.05;8.82;;;;;;;5.69;97.22;100898.44;5026096;28;20116;-79
2021/12/22 00:58:38;;;;;;;19.63;8.73;;;;;;;5.65;97.29;100889.03;5027704;28;20029;-78
2021/12/22 01:01:04;;;;;;;13.40;6.47;;;;;;;5.77;97.92;100899.56;5010606;28;20037;-79
2021/12/22 01:03:30;;;;;;;27.98;9.90;;;;;;;5.75;97.30;100886.38;5028234;28;20120;-78
2021/12/22 01:05:55;;;;;;;34.53;10.30;;;;;;;5.79;97.71;100881.59;5014875;28;20113;-78
2021/12/22 01:08:21;;;;;;;27.17;10.23;;;;;;;5.79;97.20;100885.09;5015502;28;21682;-79
2021/12/22 01:10:47;;;;;;;22.50;9.93;;;;;;;5.83;97.27;100888.34;5009427;28;20048;-78
2021/12/22 01:13:13;;;;;;;24.17;8.52;;;;;;;5.82;97.11;100873.28;4994858;28;20033;-78
2021/12/22 01:15:39;;;;;;;23.73;9.70;;;;;;;6.00;97.11;100889.47;5012439;28;20033;-78
2021/12/22 01:18:14;;;;;;;28.88;9.77;;;;;;;5.97;96.99;100879.91;5015307;28;20037;-78
2021/12/22 01:23:26;;;;;;;22.75;8.95;;;;;;;5.97;96.38;100861.22;5026247;28;20033;-78
2021/12/22 01:25:51;;;;;;;29.02;11.00;;;;;;;6.19;96.41;100888.56;5011623;28;20056;-78
2021/12/22 01:28:18;;;;;;;26.52;9.98;;;;;;;6.21;95.67;100887.44;4998206;28;20123;-78
2021/12/22 01:30:47;;;;;;;30.98;9.30;;;;;;;6.21;95.51;100878.59;5020870;28;20349;-79
2021/12/22 01:33:14;;;;;;;30.40;9.85;;;;;;;6.16;95.73;100866.50;5026933;28;20045;-78
2021/12/22 01:35:40;;;;;;;24.42;8.63;;;;;;;6.23;96.35;100882.81;5022443;28;20472;-79
2021/12/22 01:38:06;;;;;;;21.08;7.30;;;;;;;6.31;95.63;100879.41;5024920;28;20483;-78
2021/12/22 01:40:35;;;;;;;32.95;11.15;;;;;;;6.42;95.37;100870.38;4989499;28;20026;-78
2021/12/22 01:43:02;;;;;;;24.20;8.13;;;;;;;6.43;94.98;100856.03;5013705;28;20076;-78
2021/12/22 01:51:07;;;;;;;25.13;10.10;;;;;;;6.41;95.63;100864.22;5025884;28;20582;-78
2021/12/22 01:53:42;;;;;;;30.25;8.90;;;;;;;6.46;95.59;100855.75;5011851;28;20026;-78
2021/12/22 01:56:30;;;;;;;24.33;8.52;;;;;;;6.46;95.50;100855.75;4994660;28;20107;-78
2021/12/22 01:58:58;;;;;;;25.35;8.98;;;;;;;6.48;95.82;100851.94;4997118;28;20030;-78
2021/12/22 02:01:25;;;;;;;26.38;9.40;;;;;;;6.45;95.66;100841.53;5028518;28;20041;-79
2021/12/22 02:03:51;;;;;;;23.33;9.80;;;;;;;6.50;95.82;100846.44;4991731;28;20049;-78
2021/12/22 02:06:18;;;;;;;29.90;10.77;;;;;;;6.49;95.64;100839.44;4992671;28;20038;-79
2021/12/22 02:08:45;;;;;;;22.58;8.00;;;;;;;6.43;96.09;100832.00;5008307;28;20041;-79
2021/12/22 02:11:15;;;;;;;15.85;7.03;;;;;;;6.34;97.42;100820.38;5023260;28;20061;-79
2021/12/22 02:13:45;;;;;;;20.33;6.53;;;;;;;6.10;98.07;100807.53;4989321;28;20065;-78
2021/12/22 02:16:14;;;;;;;32.10;10.88;;;;;;;6.10;99.12;100821.72;4991218;28;20034;-79
2021/12/22 02:18:43;;;;;;;30.38;10.07;;;;;;;6.08;99.79;100814.84;5026777;28;20038;-79
2021/12/22 02:21:09;;;;;;;22.58;8.70;;;;;;;6.02;100.00;100818.94;5012930;28;20034;-79
2021/12/22 02:23:36;;;;;;;32.38;10.45;;;;;;;5.98;100.00;100822.03;5004498;28;20379;-79
2021/12/22 02:26:12;;;;;;;22.33;8.60;;;;;;;5.97;100.00;100815.00;5008350;28;20022;-79
2021/12/22 02:28:41;;;;;;;34.95;9.90;;;;;;;5.91;100.00;100809.25;5015326;28;20036;-79
2021/12/22 02:31:12;;;;;;;38.80;10.13;;;;;;;5.88;100.00;100806.88;5008476;28;20038;-79
2021/12/22 02:33:40;;;;;;;32.78;9.60;;;;;;;5.83;100.00;100800.28;5005998;28;20479;-79
2021/12/22 02:38:35;;;;;;;26.15;9.23;;;;;;;5.88;100.00;100806.03;5021024;28;20089;-79
2021/12/22 02:41:02;;;;;;;30.77;10.55;;;;;;;5.86;100.00;100805.31;5012951;28;20164;-80
2021/12/22 02:43:32;;;;;;;35.97;9.90;;;;;;;5.85;100.00;100800.97;4994553;28;20044;-79
2021/12/22 02:45:58;;;;;;;20.90;6.90;;;;;;;5.60;100.00;100755.25;5004182;28;20041;-79
2021/12/22 02:48:28;;;;;;;30.15;9.40;;;;;;;5.78;100.00;100787.34;5018212;28;20061;-80
2021/12/22 02:50:56;;;;;;;32.42;10.73;;;;;;;5.75;100.00;100787.66;4994561;28;20128;-80
2021/12/22 02:53:27;;;;;;;29.92;8.95;;;;;;;5.66;100.00;100760.03;5035333;28;20487;-80
2021/12/22 02:56:01;;;;;;;30.80;8.75;;;;;;;5.67;100.00;100759.03;5021277;28;20044;-79
2021/12/22 03:06:19;;;;;;;30.17;9.43;;;;;;;5.70;100.00;100753.41;5016560;28;20033;-80
2021/12/22 03:08:44;;;;;;;38.33;10.65;;;;;;;5.67;100.00;100720.84;5011640;28;20037;-79
2021/12/22 03:11:10;;;;;;;18.88;5.18;;;;;;;5.67;100.00;100715.50;4990928;28;20116;-80
2021/12/22 03:13:35;;;;;;;10.65;4.60;;;;;;;5.75;100.00;100722.78;5003725;28;20060;-79
2021/12/22 03:16:01;;;;;;;5.40;3.88;;;;;;;5.75;100.00;100717.44;4998533;28;20060;-79
2021/12/22 03:18:27;;;;;;;2.35;1.65;;;;;;;5.66;100.00;100704.00;4992913;28;20398;-79
2021/12/22 03:21:01;;;;;;;2.65;2.45;;;;;;;5.75;100.00;100712.13;5007721;28;20045;-78
2021/12/22 03:23:27;;;;;;;7.47;1.75;;;;;;;5.75;100.00;100701.44;4990295;28;20038;-79
2021/12/22 03:25:53;;;;;;;11.00;5.10;;;;;;;5.75;100.00;100706.78;5022967;28;20037;-78
2021/12/22 03:28:18;;;;;;;12.27;4.45;;;;;;;5.70;100.00;100694.69;5008897;28;20376;-79
2021/12/22 03:30:44;;;;;;;9.05;7.35;;;;;;;5.69;100.00;100670.84;5028628;28;20365;-80
2021/12/22 03:33:10;;;;;;;12.00;4.63;;;;;;;5.75;100.00;100682.75;5026242;28;20037;-79
2021/12/22 03:35:38;;;;;;;11.73;4.13;;;;;;;5.77;100.00;100672.75;4990715;28;20029;-79
2021/12/22 03:38:04;;;;;;;3.50;2.60;;;;;;;5.77;100.00;100662.09;5023183;28;20041;-78
2021/12/22 03:40:30;;;;;;;6.30;3.15;;;;;;;5.79;100.00;100654.78;4986095;28;20556;-78
2021/12/22 03:42:55;;;;;;;5.72;2.85;;;;;;;5.79;100.00;100644.13;5007977;28;20150;-79
2021/12/22 03:45:21;;;;;;;7.72;2.28;;;;;;;5.77;100.00;100646.94;4991096;28;20056;-78
2021/12/22 03:47:47;;;;;;;2.55;1.90;;;;;;;5.80;100.00;100646.66;5027434;28;20084;-80
2021/12/22 03:50:14;;;;;;;3.08;1.88;;;;;;;5.84;100.00;100631.19;5008433;28;20025;-78
2021/12/22 03:52:41;;;;;;;3.72;3.13;;;;;;;5.83;100.00;100625.00;5005772;28;20036;-81
2021/12/22 03:55:07;;;;;;;3.90;1.27;;;;;;;5.84;100.00;100609.81;5036135;28;20033;-80
2021/12/22 03:57:33;;;;;;;10.80;4.85;;;;;;;5.85;100.00;100617.69;5021421;28;20056;-79
2021/12/22 03:59:59;;;;;;;4.60;1.92;;;;;;;5.90;100.00;100628.75;5023926;28;20463;-79
2021/12/22 04:02:27;;;;;;;1.15;1.00;;;;;;;5.89;100.00;100607.56;5021376;28;20035;-78
2021/12/22 04:04:52;;;;;;;1.75;1.35;;;;;;;5.90;100.00;100606.56;5023456;28;20033;-79
2021/12/22 04:07:18;;;;;;;3.60;1.58;;;;;;;5.93;100.00;100607.16;5008983;28;20426;-78
2021/12/22 04:09:45;;;;;;;2.30;1.58;;;;;;;5.94;100.00;100595.47;4989107;28;20137;-81
2021/12/22 04:12:11;;;;;;;5.00;1.95;;;;;;;5.96;100.00;100591.84;5007772;28;20115;-79
2021/12/22 04:14:37;;;;;;;1.75;1.52;;;;;;;5.97;100.00;100588.16;5004500;28;20452;-78
2021/12/22 04:17:03;;;;;;;9.40;3.65;;;;;;;5.98;100.00;100585.34;5006583;28;20030;-79
2021/12/22 04:19:28;;;;;;;11.02;2.20;;;;;;;6.01;100.00;100578.88;4995195;28;20049;-79
2021/12/22 04:21:54;;;;;;;5.45;4.05;;;;;;;6.00;100.00;100567.34;4986650;28;20048;-79
2021/12/22 04:24:20;;;;;;;7.15;3.45;;;;;;;5.94;100.00;100547.44;5007307;28;20411;-79
2021/12/22 04:26:46;;;;;;;9.40;4.78;;;;;;;6.03;100.00;100556.34;5005754;28;20048;-80
2021/12/22 04:29:12;;;;;;;4.40;1.80;;;;;;;6.05;100.00;100553.53;5006882;28;20025;-79
2021/12/22 04:31:39;;;;;;;9.55;4.63;;;;;;;6.07;100.00;100562.25;4995346;28;20037;-79
2021/12/22 04:34:08;;;;;;;3.03;1.98;;;;;;;6.04;100.00;100566.06;5027475;28;20038;-81
2021/12/22 04:36:38;;;;;;;8.52;3.67;;;;;;;6.08;100.00;100558.56;5044856;28;20475;-80
2021/12/22 04:39:04;;;;;;;6.10;3.60;;;;;;;6.09;100.00;100555.78;5013918;28;20251;-80
2021/12/22 04:41:30;;;;;;;4.35;1.20;;;;;;;6.00;100.00;100537.16;5010644;28;20524;-79
2021/12/22 04:43:58;;;;;;;7.28;4.13;;;;;;;6.09;100.00;100568.28;5024103;28;20038;-80
2021/12/22 04:46:24;;;;;;;3.20;1.15;;;;;;;6.11;100.00;100572.47;5013931;28;20037;-79
2021/12/22 04:48:50;;;;;;;3.35;2.03;;;;;;;6.11;100.00;100580.50;4987745;28;20038;-79
2021/12/22 04:51:27;;;;;;;5.28;2.63;;;;;;;6.12;100.00;100587.50;5010957;28;20037;-80
2021/12/22 04:54:48;;;;;;;23.15;7.40;;;;;;;6.12;100.00;100584.81;5015318;28;20540;-80
2021/12/22 04:56:42;;;;;;;8.13;3.60;;;;;;;6.13;100.00;100580.31;5013844;28;20052;-80
2021/12/22 04:59:08;;;;;;;1.80;1.70;;;;;;;5.93;100.00;100531.56;5010215;28;20041;-79
2021/12/22 05:01:34;;;;;;;2.60;2.40;;;;;;;6.12;100.00;100563.47;5007749;28;20038;-79
2021/12/22 05:04:00;;;;;;;2.60;1.85;;;;;;;6.02;100.00;100544.00;5008655;28;20399;-80
2021/12/22 05:06:25;;;;;;;2.17;2.08;;;;;;;6.08;100.00;100548.72;5012849;28;20040;-80
2021/12/22 05:08:51;;;;;;;2.97;2.70;;;;;;;6.12;100.00;100554.63;4993504;28;20163;-80
2021/12/22 05:11:18;;;;;;;2.00;1.83;;;;;;;6.12;100.00;100547.44;5021873;28;20398;-80
2021/12/22 05:13:43;;;;;;;4.95;3.40;;;;;;;6.12;100.00;100563.47;5010181;28;20063;-79
2021/12/22 05:16:16;;;;;;;5.07;3.40;;;;;;;6.11;100.00;100563.59;5024728;28;20037;-80
2021/12/22 05:18:56;;;;;;;0.52;0.52;;;;;;;6.04;100.00;100525.19;5011794;28;20044;-79
2021/12/22 05:21:22;;;;;;;1.15;0.98;;;;;;;6.13;100.00;100543.78;5009864;28;20597;-79
2021/12/22 05:23:53;;;;;;;4.13;2.47;;;;;;;6.12;100.00;100534.09;5021981;28;20479;-79
2021/12/22 05:26:19;;;;;;;2.17;2.03;;;;;;;6.09;100.00;100539.75;5011025;28;20391;-80
2021/12/22 05:28:45;;;;;;;8.50;2.75;;;;;;;6.11;100.00;100521.75;5007959;28;20045;-79
2021/12/22 05:31:10;;;;;;;12.73;6.60;;;;;;;6.15;100.00;100525.78;5012984;28;20128;-79
2021/12/22 05:33:36;;;;;;;9.52;4.03;;;;;;;6.14;100.00;100508.09;4991606;28;20038;-80
2021/12/22 05:36:02;;;;;;;4.47;3.22;;;;;;;6.00;100.00;100471.25;5011871;28;20042;-79
2021/12/22 05:38:27;;;;;;;3.95;3.10;;;;;;;6.07;100.00;100474.16;4994702;28;20030;-79
2021/12/22 05:40:53;;;;;;;6.72;3.13;;;;;;;6.18;100.00;100495.28;5009314;28;20100;-79
2021/12/22 05:43:19;;;;;;;10.02;3.35;;;;;;;6.18;100.00;100499.78;5025625;28;20628;-79
2021/12/22 05:45:45;;;;;;;2.15;1.80;;;;;;;6.19;100.00;100502.28;4991261;28;20119;-79
2021/12/22 05:48:11;;;;;;;1.27;0.70;;;;;;;6.18;100.00;100499.78;5024552;28;20060;-80
2021/12/22 05:50:36;;;;;;;1.13;1.00;;;;;;;6.18;100.00;100486.44;5009325;28;20025;-80
2021/12/22 05:53:03;;;;;;;1.92;1.35;;;;;;;6.19;100.00;100480.91;5022560;28;20057;-80
2021/12/22 05:55:29;;;;;;;1.52;1.42;;;;;;;6.21;100.00;100467.44;5007713;28;20080;-79
2021/12/22 05:57:54;;;;;;;2.63;1.80;;;;;;;6.16;100.00;100463.38;5009965;28;20049;-79
2021/12/22 06:00:22;;;;;;;6.53;3.15;;;;;;;6.22;100.00;100467.28;5008146;28;20033;-78
2021/12/22 06:02:48;;;;;;;14.18;3.47;;;;;;;6.05;100.00;100425.44;5018941;28;20044;-79
2021/12/22 06:05:13;;;;;;;4.15;2.38;;;;;;;6.25;100.00;100452.78;4994119;28;20124;-79
2021/12/22 06:07:39;;;;;;;3.30;3.00;;;;;;;6.24;100.00;100445.75;5025535;28;20029;-80
2021/12/22 06:10:05;;;;;;;3.50;3.22;;;;;;;6.27;100.00;100451.66;5011711;28;20079;-80
2021/12/22 06:12:31;;;;;;;5.75;3.47;;;;;;;6.20;100.00;100431.91;5011290;28;20498;-79
2021/12/22 06:14:57;;;;;;;0.95;0.95;;;;;;;6.31;100.00;100441.47;5053834;28;20057;-79
2021/12/22 06:17:22;;;;;;;6.35;4.22;;;;;;;6.32;100.00;100429.78;5008635;28;20043;-78
2021/12/22 06:19:48;;;;;;;4.47;2.67;;;;;;;6.34;100.00;100417.97;5009765;28;20041;-79
2021/12/22 06:22:14;;;;;;;7.63;4.88;;;;;;;6.35;100.00;100408.97;5009475;28;20124;-79
2021/12/22 06:24:39;;;;;;;6.53;2.03;;;;;;;6.27;100.00;100395.56;5022973;28;20037;-80
2021/12/22 06:27:05;;;;;;;8.73;3.38;;;;;;;6.33;100.00;100399.44;5020120;28;20037;-79
2021/12/22 06:29:31;;;;;;;18.67;6.97;;;;;;;6.31;100.00;100398.75;5010207;28;20041;-79
2021/12/22 06:31:56;;;;;;;1.25;1.15;;;;;;;6.46;100.00;100410.53;5024863;28;20099;-79
2021/12/22 06:34:22;;;;;;;0.70;0.70;;;;;;;6.47;100.00;100398.03;5023521;28;20080;-79
2021/12/22 06:36:47;;;;;;;2.60;2.15;;;;;;;6.51;100.00;100410.06;5027074;28;20030;-78
2021/12/22 06:39:15;;;;;;;6.82;4.35;;;;;;;6.45;100.00;100376.81;5009766;28;20046;-79
2021/12/22 06:41:40;;;;;;;3.67;2.00;;;;;;;6.53;100.00;100368.84;5010941;28;20151;-79
2021/12/22 06:44:06;;;;;;;4.28;2.72;;;;;;;6.50;100.00;100369.16;4992682;28;20120;-79
2021/12/22 06:46:32;;;;;;;6.57;2.72;;;;;;;6.49;100.00;100361.31;5024507;28;20033;-79
2021/12/22 06:48:58;;;;;;;1.13;1.13;;;;;;;6.52;100.00;100391.22;5007499;28;20051;-79
2021/12/22 06:51:24;;;;;;;8.70;3.05;;;;;;;6.55;100.00;100396.22;5008734;28;20037;-80
2021/12/22 06:53:49;;;;;;;0.70;0.70;;;;;;;6.55;100.00;100390.88;5016716;28;20069;-80
2021/12/22 06:56:15;;;;;;;0.63;0.63;;;;;;;6.62;100.00;100387.59;5006337;28;20038;-80
2021/12/22 06:58:41;;;;;;;3.47;2.28;;;;;;;6.62;100.00;100387.59;5029824;28;20041;-79
2021/12/22 07:01:06;;;;;;;1.42;1.35;;;;;;;6.63;100.00;100394.59;5005292;28;20546;-79
2021/12/22 07:03:32;;;;;;;0.60;0.60;;;;;;;6.60;100.00;100383.22;5023098;28;20045;-79
2021/12/22 07:05:58;;;;;;;2.22;2.13;;;;;;;6.65;100.00;100384.59;5007524;28;20042;-79
2021/12/22 07:08:23;;;;;;;1.38;1.38;;;;;;;6.62;100.00;100369.72;5008007;28;20421;-79
2021/12/22 07:10:49;;;;;;;1.38;1.38;;;;;;;6.67;100.00;100371.91;5023301;28;20106;-79
2021/12/22 07:13:15;;;;;;;0.68;0.68;;;;;;;6.60;100.00;100377.06;4994289;28;20045;-79
2021/12/22 07:15:43;;;;;;;0.50;0.50;;;;;;;6.67;100.00;100390.59;4993299;28;20034;-79
2021/12/22 07:18:11;;;;;;;2.17;1.75;;;;;;;6.57;100.00;100375.53;4987914;28;20077;-81
2021/12/22 07:20:36;;;;;;;1.17;0.90;;;;;;;6.52;100.00;100350.31;5017322;28;20029;-80
2021/12/22 07:23:03;;;;;;;1.23;1.17;;;;;;;6.65;100.00;100350.72;5002540;28;20099;-79
2021/12/22 07:25:28;;;;;;;3.05;1.73;;;;;;;6.68;100.00;100346.88;5003912;28;20090;-81
2021/12/22 07:27:54;;;;;;;1.08;0.98;;;;;;;6.68;100.00;100354.91;4994518;28;20489;-79
2021/12/22 07:30:20;;;;;;;5.65;1.95;;;;;;;6.71;100.00;100351.91;5013261;28;20264;-80
2021/12/22 07:32:45;;;;;;;2.85;2.53;;;;;;;6.71;100.00;100363.41;5021362;28;20586;-79
2021/12/22 07:35:48;;;;;;;0.40;0.40;;;;;;;6.73;100.00;100360.59;5004586;28;20033;-79
2021/12/22 07:38:32;;;;;;;3.65;1.40;;;;;;;6.73;100.00;100333.88;5023921;28;20136;-79
2021/12/22 07:40:59;;;;;;;1.02;1.02;;;;;;;6.72;100.00;100326.84;5019845;28;20045;-79
2021/12/22 07:43:27;;;;;;;2.50;1.65;;;;;;;6.70;100.00;100335.03;5022730;28;20028;-80
2021/12/22 07:45:53;;;;;;;1.45;1.13;;;;;;;6.66;100.00;100332.84;5002883;28;20025;-80
2021/12/22 07:48:19;;;;;;;0.65;0.65;;;;;;;6.72;100.00;100324.16;5022174;28;20041;-80
2021/12/22 07:50:45;;;;;;;2.63;2.28;;;;;;;6.68;100.00;100325.50;5020675;28;20046;-79
2021/12/22 07:53:11;;;;;;;1.73;1.63;;;;;;;6.69;100.00;100332.50;5021501;28;20053;-79
2021/12/22 07:55:37;;;;;;;0.40;0.40;;;;;;;6.72;100.00;100326.84;5021279;28;20029;-79
2021/12/22 07:58:03;;;;;;;0.95;0.95;;;;;;;6.76;100.00;100336.22;4995577;28;20360;-80
2021/12/22 08:00:28;;;;;;;4.95;1.25;;;;;;;6.73;100.00;100317.84;5018176;28;20052;-79
2021/12/22 08:02:54;;;;;;;2.35;1.23;;;;;;;6.79;100.00;100336.72;5017795;28;20103;-80
2021/12/22 08:05:20;;;;;;;1.35;1.35;;;;;;;6.77;100.00;100320.03;4991745;28;20092;-80
2021/12/22 08:07:46;;;;;;;2.92;2.03;;;;;;;6.79;100.00;100322.53;4996201;28;20033;-80
2021/12/22 08:10:11;;;;;;;1.05;0.85;;;;;;;6.72;100.00;100302.78;5026732;28;20044;-79
2021/12/22 08:12:37;;;;;;;1.02;0.80;;;;;;;6.77;100.00;100297.81;4991945;28;20057;-79
2021/12/22 08:15:04;;;;;;;0.52;0.52;;;;;;;6.76;100.00;100288.94;5024880;28;20041;-79
2021/12/22 08:17:32;;;;;;;0.82;0.82;;;;;;;6.81;100.00;100291.16;5008561;28;20022;-80
2021/12/22 08:19:58;;;;;;;0.40;0.40;;;;;;;6.87;100.00;100297.66;5008177;28;20049;-79
2021/12/22 08:22:24;;;;;;;1.23;1.00;;;;;;;6.82;100.00;100282.13;5011341;28;20139;-79
2021/12/22 08:24:50;;;;;;;1.55;1.30;;;;;;;6.75;100.00;100281.13;5024569;28;20691;-79
2021/12/22 08:27:17;;;;;;;5.65;2.08;;;;;;;6.80;100.00;100274.28;5011221;28;20403;-80
2021/12/22 08:29:44;;;;;;;2.70;2.40;;;;;;;6.93;100.00;100289.00;4990714;28;20064;-79
2021/12/22 08:32:11;;;;;;;0.70;0.70;;;;;;;6.92;100.00;100280.16;5012874;28;20033;-80
2021/12/22 08:34:38;;;;;;;0.70;0.70;;;;;;;6.93;100.00;100264.94;5008900;28;20091;-79
2021/12/22 08:39:49;;;;;;;2.30;1.88;;;;;;;6.97;100.00;100269.78;5026894;28;20025;-78
2021/12/22 08:42:14;;;;;;;1.48;1.38;;;;;;;7.02;100.00;100267.47;4991487;28;20506;-80
2021/12/22 08:44:41;;;;;;;2.13;1.65;;;;;;;7.05;100.00;100266.31;4991916;28;21837;-79
2021/12/22 08:47:07;;;;;;;0.70;0.70;;;;;;;7.05;100.00;100266.31;5009057;28;20511;-80
2021/12/22 08:49:33;;;;;;;1.08;1.08;;;;;;;7.01;100.00;100255.13;5009991;28;20026;-79
2021/12/22 08:51:59;;;;;;;0.50;0.50;;;;;;;7.09;100.00;100270.31;4995921;28;20053;-79
2021/12/22 08:54:25;;;;;;;1.25;1.02;;;;;;;6.94;100.00;100232.72;5010836;28;20037;-79
2021/12/22 08:56:52;;;;;;;6.65;2.90;;;;;;;7.12;100.00;100270.00;4993901;28;20056;-80
2021/12/22 08:59:18;;;;;;;2.05;0.95;;;;;;;7.17;100.00;100265.00;5023232;28;20033;-78
2021/12/22 09:01:44;;;;;;;0.50;0.50;;;;;;;7.16;100.00;100257.94;5010646;28;20387;-80
2021/12/22 09:04:10;;;;;;;5.35;3.20;;;;;;;7.13;100.00;100241.41;5011385;28;20053;-79
2021/12/22 09:06:36;;;;;;;1.08;1.08;;;;;;;7.23;100.00;100255.47;4989063;28;20041;-79
2021/12/22 09:09:03;;;;;;;1.25;1.25;;;;;;;7.13;100.00;100226.22;5010893;28;20449;-80
2021/12/22 09:11:29;;;;;;;2.00;1.45;;;;;;;7.29;100.00;100243.25;5010707;28;20110;-79
2021/12/22 09:13:55;;;;;;;1.85;1.55;;;;;;;7.23;100.00;100236.75;4989857;28;20137;-79
2021/12/22 09:16:20;;;;;;;11.77;3.72;;;;;;;7.27;100.00;100235.41;5024837;28;20053;-79
2021/12/22 09:18:46;;;;;;;3.05;1.77;;;;;;;7.31;100.00;100231.41;4997565;28;20068;-80
2021/12/22 09:21:13;;;;;;;3.88;1.50;;;;;;;7.31;100.00;100215.34;5014810;28;20049;-79
2021/12/22 09:23:39;;;;;;;1.13;1.02;;;;;;;7.42;100.00;100217.69;5022278;28;20474;-80
2021/12/22 09:26:05;;;;;;;6.10;2.35;;;;;;;7.48;100.00;100237.56;5028206;28;20045;-79
2021/12/22 09:28:31;;;;;;;4.95;1.90;;;;;;;7.46;100.00;100236.88;4993745;28;20065;-79
2021/12/22 09:30:58;;;;;;;5.47;3.08;;;;;;;7.53;100.00;100253.13;5021935;28;20108;-79
2021/12/22 09:33:25;;;;;;;1.85;0.88;;;;;;;7.53;100.00;100240.56;4994083;28;20048;-79
2021/12/22 09:35:52;;;;;;;3.75;1.95;;;;;;;7.55;100.00;100224.38;4995060;28;20092;-79
2021/12/22 09:38:18;;;;;;;2.65;1.90;;;;;;;7.53;100.00;100221.00;5013895;28;20048;-80
2021/12/22 09:40:45;;;;;;;1.33;1.05;;;;;;;7.54;100.00;100223.53;5023586;28;20034;-79
2021/12/22 09:43:10;;;;;;;0.93;0.93;;;;;;;7.61;100.00;100221.81;5011705;28;20037;-79
2021/12/22 09:45:42;;;;;;;0.90;0.90;;;;;;;7.61;100.00;100210.28;5003772;28;20033;-79
2021/12/22 09:53:13;;;;;;;3.53;1.65;;;;;;;7.59;100.00;100194.41;5032479;28;20032;-79
2021/12/22 09:55:39;;;;;;;0.50;0.50;;;;;;;7.66;100.00;100203.44;4998823;28;20139;-79
2021/12/22 09:58:05;;;;;;;5.60;1.88;;;;;;;7.57;100.00;100198.25;5013274;28;20124;-80
2021/12/22 10:00:34;;;;;;;2.53;0.95;;;;;;;7.65;100.00;100199.09;4997376;28;20033;-85
2021/12/22 10:03:02;;;;;;;5.40;1.55;;;;;;;7.44;100.00;100161.34;5014953;28;20033;-86
2021/12/22 10:05:28;;;;;;;1.67;1.58;;;;;;;7.60;100.00;100200.63;5013860;28;20029;-85
2021/12/22 10:08:12;;;;;;;0.85;0.80;;;;;;;7.66;100.00;100207.94;5003488;28;20488;-86
2021/12/22 10:10:46;;;;;;;1.33;1.15;;;;;;;7.69;100.00;100205.75;5015260;28;20683;-85
2021/12/22 10:13:21;;;;;;;0.68;0.68;;;;;;;7.69;100.00;100211.09;4998965;28;20050;-85
2021/12/22 10:15:48;;;;;;;0.75;0.70;;;;;;;7.62;100.00;100191.41;5002760;28;20585;-85
2021/12/22 10:18:19;;;;;;;1.02;1.02;;;;;;;7.64;100.00;100183.19;5031654;28;20029;-84
2021/12/22 10:20:48;;;;;;;1.02;0.98;;;;;;;7.70;100.00;100180.69;5030061;28;20052;-84
2021/12/22 10:23:27;;;;;;;2.33;2.10;;;;;;;7.80;100.00;100193.03;5029689;28;20120;-84
2021/12/22 10:25:55;;;;;;;1.83;1.20;;;;;;;7.81;100.00;100187.50;5031366;28;20041;-85
2021/12/22 10:28:21;;;;;;;7.85;2.45;;;;;;;7.85;100.00;100191.50;5030817;28;20116;-86
2021/12/22 10:30:55;;;;;;;3.50;1.02;;;;;;;7.81;100.00;100173.31;5028511;28;20052;-85
2021/12/22 10:33:26;;;;;;;7.95;4.45;;;;;;;7.90;100.00;100178.44;5015734;28;20116;-84
2021/12/22 10:35:55;;;;;;;2.35;1.45;;;;;;;7.94;100.00;100173.59;4998871;28;20039;-84
2021/12/22 10:38:29;;;;;;;6.85;3.33;;;;;;;7.88;100.00;100164.38;5014938;28;20021;-85
2021/12/22 10:41:02;;;;;;;1.80;1.35;;;;;;;7.94;100.00;100178.94;5025025;28;20099;-84
2021/12/22 10:43:30;;;;;;;11.40;3.15;;;;;;;8.00;100.00;100185.44;5023427;28;20101;-84
2021/12/22 10:46:00;;;;;;;2.28;1.60;;;;;;;7.98;100.00;100171.38;5030289;28;20120;-82
2021/12/22 10:51:29;;;;;;;4.13;1.63;;;;;;;8.07;100.00;100171.19;5023831;28;20030;-82
2021/12/22 10:53:57;;;;;;;1.88;1.65;;;;;;;8.02;100.00;100151.28;5041880;28;20065;-82
2021/12/22 10:56:28;;;;;;;2.80;1.77;;;;;;;8.13;100.00;100161.63;4996783;28;20032;-82
2021/12/22 10:59:06;;;;;;;2.25;2.08;;;;;;;7.97;100.00;100138.44;5026119;28;20034;-83
2021/12/22 11:01:34;;;;;;;1.58;1.48;;;;;;;8.12;100.00;100167.97;5010026;28;20033;-82
2021/12/22 11:04:04;;;;;;;3.28;2.47;;;;;;;8.09;100.00;100149.56;5015913;28;20037;-82
2021/12/22 11:06:31;;;;;;;0.90;0.90;;;;;;;8.06;100.00;100148.09;4996408;28;20040;-81
2021/12/22 11:08:59;;;;;;;2.63;1.90;;;;;;;8.14;100.00;100164.09;5025657;28;20029;-82
2021/12/22 11:11:29;;;;;;;14.98;9.20;;;;;;;8.15;100.00;100168.47;5027568;28;20055;-82
2021/12/22 11:14:13;;;;;;;14.52;6.80;;;;;;;8.20;100.00;100161.75;5027513;28;20037;-82
2021/12/22 11:16:50;;;;;;;8.13;1.88;;;;;;;8.24;100.00;100152.38;5005933;28;20038;-81
2021/12/22 11:19:15;;;;;;;2.17;2.00;;;;;;;8.18;100.00;100143.19;5030418;28;20055;-82
2021/12/22 11:22:00;;;;;;;5.28;3.65;;;;;;;8.33;100.00;100153.97;5023519;28;20475;-81
2021/12/22 11:24:27;;;;;;;6.57;5.95;;;;;;;8.29;100.00;100136.59;5028821;28;20092;-81
2021/12/22 11:26:53;;;;;;;10.43;9.38;;;;;;;8.41;100.00;100142.41;5021879;28;20021;-81
2021/12/22 11:29:19;;;;;;;6.97;3.42;;;;;;;8.44;100.00;100126.84;5022791;28;20021;-82
2021/12/22 11:31:47;;;;;;;4.53;3.35;;;;;;;8.46;100.00;100115.94;5010926;28;20041;-82
2021/12/22 11:34:14;;;;;;;2.83;1.52;;;;;;;8.57;100.00;100110.16;5010868;28;20516;-82
2021/12/22 11:36:40;;;;;;;2.25;1.23;;;;;;;8.62;100.00;100105.09;5010460;28;20068;-84
2021/12/22 11:39:05;;;;;;;6.70;4.35;;;;;;;8.72;100.00;100107.53;5023181;28;20456;-82
2021/12/22 11:41:32;;;;;;;2.05;1.77;;;;;;;8.78;100.00;100118.34;5026494;28;20029;-82
2021/12/22 11:44:01;;;;;;;6.72;4.95;;;;;;;8.81;100.00;100111.78;5020492;28;20042;-82
2021/12/22 11:46:30;;;;;;;2.92;2.45;;;;;;;8.88;100.00;100119.97;5035082;28;20120;-83
2021/12/22 11:48:56;;;;;;;5.05;2.65;;;;;;;8.86;100.00;100119.31;5023418;28;20033;-82
2021/12/22 11:51:34;;;;;;;1.35;1.10;;;;;;;8.79;100.00;100113.84;5026449;28;20030;-81
2021/12/22 11:54:09;;;;;;;1.25;1.15;;;;;;;8.78;100.00;100107.63;5008766;28;20467;-82
2021/12/22 11:56:49;;;;;;;1.55;1.45;;;;;;;8.80;100.00;100100.25;4995549;28;20042;-83